This is the latest recevied weather packets stored in our database for station/object BM2MWA-13. If no packets are shown the sender has not sent any weather packets the latest 10 day(s).
| Time | Temp. | Humidity | Pressure | Rain* | Wind** | Luminosity | Snow |
|---|---|---|---|---|---|---|---|
| 1778040423 | 25.56° C | 78% | 1010.2 hPa | 0 mm | - | - | - |
| 1778039824 | 25.56° C | 76% | 1010.3 hPa | 0 mm | - | - | - |
| 1778039223 | 26.11° C | 74% | 1010.4 hPa | 0 mm | - | - | - |
| 1778038623 | 25.56° C | 77% | 1010.4 hPa | 0 mm | - | - | - |
| 1778038024 | 25.56° C | 76% | 1010.5 hPa | 0 mm | - | - | - |
| 1778037425 | 25.56° C | 76% | 1010.5 hPa | 0 mm | - | - | - |
| 1778036824 | 25.56° C | 77% | 1010.6 hPa | 0 mm | - | - | - |
| 1778036223 | 25° C | 79% | 1010.5 hPa | 0 mm | - | - | - |
| 1778035623 | 25.56° C | 80% | 1010.5 hPa | 0 mm | - | - | - |
| 1778035024 | 25.56° C | 78% | 1010.5 hPa | 0 mm | - | - | - |
| 1778034423 | 25° C | 80% | 1010.5 hPa | 0 mm | - | - | - |
| 1778033823 | 25° C | 79% | 1010.5 hPa | 0 mm | - | - | - |
| 1778033224 | 25° C | 78% | 1010.6 hPa | 0 mm | - | - | - |
| 1778032623 | 25° C | 77% | 1010.6 hPa | 0 mm | - | - | - |
| 1778032023 | 24.44° C | 80% | 1010.7 hPa | 0 mm | - | - | - |
| 1778031425 | 25.56° C | 81% | 1010.7 hPa | 0 mm | - | - | - |
| 1778030823 | 23.89° C | 85% | 1010.8 hPa | 0 mm | - | - | - |
| 1778030224 | 23.89° C | 84% | 1010.7 hPa | 0 mm | - | - | - |
| 1778029624 | 23.33° C | 85% | 1010.7 hPa | 0 mm | - | - | - |
| 1778029023 | 23.33° C | 83% | 1010.8 hPa | 0 mm | - | - | - |
| 1778028424 | 23.33° C | 87% | 1010.8 hPa | 0 mm | - | - | - |
| 1778027823 | 22.78° C | 89% | 1010.7 hPa | 0 mm | - | - | - |
| 1778027223 | 22.78° C | 90% | 1010.7 hPa | 0 mm | - | - | - |
| 1778026624 | 22.22° C | 90% | 1010.8 hPa | 0 mm | - | - | - |
| 1778026025 | 21.67° C | 92% | 1010.8 hPa | 0 mm | - | - | - |
* Rain latest hour (hover to see other rain measurements)
** Current wind speed in m/s (hover to see current wind gust speed)